createdAt,value
2018-06-11T00:00:11.375Z,99996
2018-06-11T00:02:40.951Z,99983
2018-06-11T00:05:09.791Z,99996
2018-06-11T00:07:38.625Z,99995
2018-06-11T00:10:07.458Z,99981
2018-06-11T00:12:36.286Z,99978
2018-06-11T00:15:05.122Z,99981
2018-06-11T00:17:34.708Z,99977
2018-06-11T00:20:04.291Z,99971
2018-06-11T00:22:33.136Z,99968
2018-06-11T00:25:01.975Z,99967
2018-06-11T00:27:30.812Z,99962
2018-06-11T00:29:59.648Z,99960
2018-06-11T00:32:28.492Z,99953
2018-06-11T00:34:57.332Z,99954
2018-06-11T00:37:26.907Z,99955
2018-06-11T00:39:55.748Z,99943
2018-06-11T00:42:25.334Z,99944
2018-06-11T00:44:54.165Z,99951
2018-06-11T00:47:23.356Z,99950
2018-06-11T00:49:52.197Z,99955
2018-06-11T00:52:21.039Z,99950
2018-06-11T00:54:49.870Z,99948
2018-06-11T00:57:18.703Z,99946
2018-06-11T00:59:47.548Z,99945
2018-06-11T01:02:16.376Z,99951
2018-06-11T01:04:45.960Z,99944
2018-06-11T01:07:14.798Z,99944
2018-06-11T01:09:43.628Z,99941
2018-06-11T01:12:12.484Z,99940
2018-06-11T01:14:41.320Z,99934
2018-06-11T01:17:10.152Z,99940
2018-06-11T01:19:38.986Z,99932
2018-06-11T01:22:07.817Z,99935
2018-06-11T01:24:37.395Z,99930
2018-06-11T01:27:06.235Z,99922
2018-06-11T01:29:35.066Z,99921
2018-06-11T01:32:03.893Z,99921
2018-06-11T01:34:32.733Z,99925
2018-06-11T01:37:01.558Z,99919
2018-06-11T01:39:30.388Z,99917
2018-06-11T01:41:59.218Z,99908
2018-06-11T01:44:28.646Z,99910
2018-06-11T01:46:57.473Z,99905
2018-06-11T01:49:26.314Z,99902
2018-06-11T01:51:55.898Z,99901
2018-06-11T01:54:24.735Z,99897
2018-06-11T01:56:53.566Z,99897
2018-06-11T01:59:22.403Z,99900
2018-06-11T02:01:51.237Z,99894
2018-06-11T02:04:20.067Z,99894
2018-06-11T02:06:49.649Z,99892
2018-06-11T02:09:19.225Z,99903
2018-06-11T02:11:48.077Z,99901
2018-06-11T02:14:17.659Z,99891
2018-06-11T02:16:46.490Z,99900
2018-06-11T02:19:15.329Z,99894
2018-06-11T02:21:44.177Z,99893
2018-06-11T02:24:13.014Z,99887
2018-06-11T02:26:41.856Z,99882
2018-06-11T02:29:10.690Z,99886
2018-06-11T02:31:39.536Z,99893
2018-06-11T02:34:08.368Z,99889
2018-06-11T02:36:37.951Z,99894
2018-06-11T02:39:06.854Z,99896
2018-06-11T02:41:35.647Z,99897
2018-06-11T02:44:04.495Z,99900
2018-06-11T02:46:33.334Z,99899
2018-06-11T02:49:02.916Z,99905
2018-06-11T02:51:31.754Z,99908
2018-06-11T02:54:00.599Z,99910
2018-06-11T02:56:29.423Z,99914
2018-06-11T02:58:58.262Z,99916
2018-06-11T03:01:27.093Z,99912
2018-06-11T03:03:56.670Z,99901
2018-06-11T03:06:25.501Z,99903
2018-06-11T03:08:55.079Z,99892
2018-06-11T03:11:23.915Z,99893
2018-06-11T03:13:52.755Z,99901
2018-06-11T03:16:21.596Z,99903
2018-06-11T03:18:50.443Z,99906
2018-06-11T03:21:19.282Z,99901
2018-06-11T03:23:48.141Z,99901
2018-06-11T03:26:16.960Z,99894
2018-06-11T03:28:45.795Z,99896
2018-06-11T03:31:14.638Z,99889
2018-06-11T03:33:43.471Z,99895
2018-06-11T03:36:12.308Z,99896
2018-06-11T03:38:41.150Z,99907
2018-06-11T03:41:09.996Z,99913
2018-06-11T03:43:38.832Z,99905
2018-06-11T03:46:07.672Z,99910
2018-06-11T03:48:36.511Z,99909
2018-06-11T03:51:05.345Z,99906
2018-06-11T03:53:34.188Z,99909
2018-06-11T03:56:03.045Z,99907
2018-06-11T03:58:31.895Z,99905
2018-06-11T04:01:00.743Z,99899
2018-06-11T04:03:29.566Z,99909
2018-06-11T04:05:59.149Z,99897
2018-06-11T04:08:27.983Z,99888
2018-06-11T04:10:56.832Z,99887
2018-06-11T04:13:25.686Z,99896
2018-06-11T04:15:54.518Z,99890
2018-06-11T04:18:24.108Z,99900
2018-06-11T04:20:52.947Z,99901
2018-06-11T04:23:21.790Z,99892
2018-06-11T04:25:50.630Z,99897
2018-06-11T04:28:19.462Z,99900
2018-06-11T04:30:48.302Z,99900
2018-06-11T04:33:17.143Z,99891
2018-06-11T04:35:45.978Z,99888
2018-06-11T04:38:14.848Z,99890
2018-06-11T04:40:44.420Z,99890
2018-06-11T04:43:13.255Z,99895
2018-06-11T04:45:42.103Z,99884
2018-06-11T04:48:10.942Z,99893
2018-06-11T04:50:39.789Z,99887
2018-06-11T04:53:08.632Z,99888
2018-06-11T04:55:37.733Z,99884
2018-06-11T04:58:06.326Z,99877
2018-06-11T05:00:35.158Z,99881
2018-06-11T05:03:04.009Z,99875
2018-06-11T05:05:32.850Z,99869
2018-06-11T05:08:01.757Z,99872
2018-06-11T05:10:30.574Z,99879
2018-06-11T05:12:59.414Z,99871
2018-06-11T05:15:28.265Z,99870
2018-06-11T05:17:57.111Z,99869
2018-06-11T05:20:25.982Z,99868
2018-06-11T05:22:54.840Z,99878
2018-06-11T05:25:23.678Z,99887
2018-06-11T05:27:52.525Z,99869
2018-06-11T05:30:21.379Z,99864
2018-06-11T05:32:50.227Z,99868
2018-06-11T05:35:19.091Z,99873
2018-06-11T05:37:47.976Z,99874
2018-06-11T05:40:16.837Z,99871
2018-06-11T05:42:45.668Z,99869
2018-06-11T05:45:15.249Z,99869
2018-06-11T05:47:44.081Z,99881
2018-06-11T05:50:12.927Z,99873
2018-06-11T05:52:41.778Z,99879
2018-06-11T05:55:10.625Z,99865
2018-06-11T05:57:40.216Z,99870
2018-06-11T06:00:09.127Z,99876
2018-06-11T06:02:38.711Z,99879
2018-06-11T06:05:07.551Z,99893
2018-06-11T06:07:36.419Z,99885
2018-06-11T06:10:06.002Z,99893
2018-06-11T06:12:34.847Z,99890
2018-06-11T06:15:03.888Z,99896
2018-06-11T06:17:32.745Z,99888
2018-06-11T06:20:01.602Z,99884
2018-06-11T06:22:30.444Z,99894
2018-06-11T06:24:59.288Z,99905
2018-06-11T06:27:28.127Z,99894
2018-06-11T06:29:56.972Z,99895
2018-06-11T06:32:25.813Z,99890
2018-06-11T06:34:54.670Z,99886
2018-06-11T06:37:23.506Z,99886
2018-06-11T06:39:52.357Z,99896
2018-06-11T06:42:21.201Z,99908
2018-06-11T06:44:50.055Z,99912
2018-06-11T06:47:18.904Z,99919
2018-06-11T06:49:47.739Z,99921
2018-06-11T06:52:16.605Z,99922
2018-06-11T06:54:45.457Z,99912
2018-06-11T06:57:14.291Z,99912
2018-06-11T06:59:43.137Z,99923
2018-06-11T07:02:11.982Z,99919
2018-06-11T07:04:40.849Z,99916
2018-06-11T07:07:09.683Z,99912
2018-06-11T07:09:38.573Z,99918
2018-06-11T07:12:07.406Z,99907
2018-06-11T07:14:36.247Z,99911
2018-06-11T07:17:05.819Z,99910
2018-06-11T07:19:34.671Z,99906
2018-06-11T07:22:03.510Z,99912
2018-06-11T07:24:32.348Z,99914
2018-06-11T07:27:01.201Z,99906
2018-06-11T07:29:30.029Z,99898
2018-06-11T07:31:58.871Z,99903
2018-06-11T07:34:27.727Z,99911
2018-06-11T07:36:56.560Z,99906
2018-06-11T07:39:25.408Z,99902
2018-06-11T07:41:54.244Z,99909
2018-06-11T07:44:23.840Z,99898
2018-06-11T07:46:52.694Z,99894
2018-06-11T07:49:21.534Z,99890
2018-06-11T07:51:50.378Z,99894
2018-06-11T07:54:19.229Z,99888
2018-06-11T07:56:48.137Z,99879
2018-06-11T07:59:16.908Z,99892
2018-06-11T08:01:45.750Z,99887
2018-06-11T08:04:15.341Z,99879
2018-06-11T08:06:44.178Z,99880
2018-06-11T08:09:13.027Z,99891
2018-06-11T08:11:41.865Z,99888
2018-06-11T08:14:10.714Z,99887
2018-06-11T08:16:39.555Z,99878
2018-06-11T08:19:08.404Z,99869
2018-06-11T08:21:37.255Z,99860
2018-06-11T08:24:06.091Z,99859
2018-06-11T08:26:35.666Z,99860
2018-06-11T08:29:04.508Z,99851
2018-06-11T08:31:33.354Z,99855
2018-06-11T08:34:02.207Z,99853
2018-06-11T08:36:31.052Z,99852
2018-06-11T08:38:59.928Z,99849
2018-06-11T08:41:28.777Z,99855
2018-06-11T08:43:57.630Z,99854
2018-06-11T08:46:26.463Z,99850
2018-06-11T08:48:55.334Z,99848
2018-06-11T08:51:24.150Z,99853
2018-06-11T08:53:53.001Z,99848
2018-06-11T08:56:21.836Z,99850
2018-06-11T08:58:50.679Z,99844
2018-06-11T09:01:19.529Z,99851
2018-06-11T09:03:48.381Z,99852
2018-06-11T09:06:17.238Z,99851
2018-06-11T09:08:46.087Z,99855
2018-06-11T09:11:14.931Z,99854
2018-06-11T09:13:43.968Z,99862
2018-06-11T09:16:12.803Z,99857
2018-06-11T09:18:41.650Z,99858
2018-06-11T09:21:10.492Z,99867
2018-06-11T09:23:39.398Z,99866
2018-06-11T09:26:08.202Z,99860
2018-06-11T09:28:37.040Z,99864
2018-06-11T09:31:06.659Z,99865
2018-06-11T09:33:35.458Z,99868
2018-06-11T09:36:04.293Z,99866
2018-06-11T09:38:33.719Z,99869
2018-06-11T09:41:03.302Z,99862
2018-06-11T09:43:32.137Z,99860
2018-06-11T09:46:00.980Z,99850
2018-06-11T09:48:29.831Z,99849
2018-06-11T09:50:58.665Z,99842
2018-06-11T09:53:27.515Z,99843
2018-06-11T09:55:56.648Z,99847
2018-06-11T09:58:25.943Z,99839
2018-06-11T10:00:54.787Z,99845
2018-06-11T10:03:23.632Z,99833
2018-06-11T10:05:52.527Z,99836
2018-06-11T10:08:21.327Z,99825
2018-06-11T10:10:50.174Z,99829
2018-06-11T10:13:19.027Z,99838
2018-06-11T10:15:48.004Z,99831
2018-06-11T10:18:17.457Z,99832
2018-06-11T10:20:46.286Z,99827
2018-06-11T10:23:15.127Z,99829
2018-06-11T10:25:43.972Z,99828
2018-06-11T10:28:12.826Z,99828
2018-06-11T10:30:41.672Z,99826
2018-06-11T10:33:10.516Z,99832
2018-06-11T10:35:39.385Z,99829
2018-06-11T10:38:08.193Z,99831
2018-06-11T10:40:37.782Z,99834
2018-06-11T10:43:06.645Z,99825
2018-06-11T10:45:35.480Z,99818
2018-06-11T10:48:04.324Z,99805
2018-06-11T10:50:33.169Z,99804
2018-06-11T10:53:02.791Z,99789
2018-06-11T10:55:32.367Z,99781
2018-06-11T10:58:01.326Z,99774
2018-06-11T11:00:30.872Z,99779
2018-06-11T11:02:59.711Z,99776
2018-06-11T11:05:28.560Z,99766
2018-06-11T11:07:58.142Z,99754
2018-06-11T11:10:26.991Z,99746
2018-06-11T11:12:55.827Z,99746
2018-06-11T11:15:24.662Z,99747
2018-06-11T11:17:53.508Z,99744
2018-06-11T11:20:22.352Z,99743
2018-06-11T11:22:51.207Z,99740
2018-06-11T11:25:20.312Z,99744
2018-06-11T11:27:48.895Z,99744
2018-06-11T11:30:17.747Z,99745
2018-06-11T11:32:46.591Z,99741
2018-06-11T11:35:15.439Z,99757
2018-06-11T11:37:45.025Z,99757
2018-06-11T11:40:13.866Z,99765
2018-06-11T11:42:42.704Z,99760
2018-06-11T11:45:11.547Z,99764
2018-06-11T11:47:40.383Z,99767
2018-06-11T11:50:09.238Z,99763
2018-06-11T11:52:38.084Z,99770
2018-06-11T11:55:06.937Z,99768
2018-06-11T11:57:35.781Z,99765
2018-06-11T12:00:04.651Z,99756
2018-06-11T12:02:33.472Z,99755
2018-06-11T12:05:02.308Z,99754
2018-06-11T12:07:31.193Z,99749
2018-06-11T12:09:59.997Z,99738
2018-06-11T12:12:28.857Z,99735
2018-06-11T12:14:57.699Z,99734
2018-06-11T12:17:26.556Z,99730
2018-06-11T12:19:55.415Z,99726
2018-06-11T12:22:24.259Z,99720
2018-06-11T12:24:53.095Z,99712
2018-06-11T12:27:21.935Z,99710
2018-06-11T12:29:50.784Z,99707
2018-06-11T12:32:19.621Z,99709
2018-06-11T12:34:48.475Z,99709
2018-06-11T12:37:17.327Z,99702
2018-06-11T12:39:46.225Z,99702
2018-06-11T12:42:15.767Z,99703
2018-06-11T12:44:44.612Z,99702
2018-06-11T12:47:13.469Z,99691
2018-06-11T12:49:54.902Z,99681
2018-06-11T12:52:23.754Z,99679
2018-06-11T12:54:52.599Z,99674
2018-06-11T12:57:21.451Z,99659
2018-06-11T12:59:50.298Z,99652
2018-06-11T13:02:19.903Z,99653
2018-06-11T13:04:49.491Z,99642
2018-06-11T13:07:18.359Z,99637
2018-06-11T13:09:47.196Z,99634
2018-06-11T13:12:16.031Z,99638
2018-06-11T13:14:44.882Z,99644
2018-06-11T13:17:13.730Z,99645
2018-06-11T13:19:42.558Z,99647
2018-06-11T13:22:12.205Z,99634
2018-06-11T13:24:40.976Z,99626
2018-06-11T13:27:09.822Z,99632
2018-06-11T13:29:38.675Z,99628
2018-06-11T13:32:07.525Z,99630
2018-06-11T13:34:37.115Z,99641
2018-06-11T13:37:05.965Z,99641
2018-06-11T13:39:34.787Z,99631
2018-06-11T13:42:04.380Z,99630
2018-06-11T13:44:33.218Z,99624
2018-06-11T13:47:02.056Z,99632
2018-06-11T13:49:30.907Z,99640
2018-06-11T13:51:59.790Z,99628
2018-06-11T13:54:28.641Z,99613
2018-06-11T13:56:57.504Z,99611
2018-06-11T13:59:26.325Z,99603
2018-06-11T14:01:56.133Z,99600
2018-06-11T14:04:24.971Z,99598
2018-06-11T14:06:53.831Z,99583
2018-06-11T14:09:22.688Z,99593
2018-06-11T14:11:51.539Z,99601
2018-06-11T14:14:20.389Z,99601
2018-06-11T14:16:49.990Z,99604
2018-06-11T14:19:19.648Z,99607
2018-06-11T14:21:49.196Z,99608
2018-06-11T14:24:18.052Z,99599
2018-06-11T14:26:46.885Z,99604
2018-06-11T14:29:15.728Z,99608
2018-06-11T14:31:44.568Z,99604
2018-06-11T14:34:13.403Z,99606
2018-06-11T14:36:42.247Z,99612
2018-06-11T14:39:11.836Z,99632
2018-06-11T14:41:42.667Z,99668
2018-06-11T14:44:11.581Z,99662
2018-06-11T14:46:40.423Z,99671
2018-06-11T14:49:09.310Z,99684
2018-06-11T14:51:38.117Z,99684
2018-06-11T14:54:06.959Z,99690
2018-06-11T14:56:35.805Z,99694
2018-06-11T14:59:04.638Z,99682
2018-06-11T15:01:33.490Z,99705
2018-06-11T15:04:03.063Z,99714
2018-06-11T15:06:31.892Z,99704
2018-06-11T15:09:00.745Z,99718
2018-06-11T15:11:29.595Z,99729
2018-06-11T15:13:58.435Z,99737
2018-06-11T15:16:27.274Z,99744
2018-06-11T15:18:56.116Z,99759
2018-06-11T15:21:24.955Z,99763
2018-06-11T15:23:53.819Z,99753
2018-06-11T15:26:23.400Z,99744
2018-06-11T15:28:52.257Z,99735
2018-06-11T15:31:21.110Z,99731
2018-06-11T15:33:50.732Z,99727
2018-06-11T15:36:19.548Z,99725
2018-06-11T15:38:48.423Z,99717
2018-06-11T15:41:17.281Z,99720
2018-06-11T15:43:46.875Z,99707
2018-06-11T15:46:15.741Z,99691
2018-06-11T15:48:44.600Z,99695
2018-06-11T15:51:13.429Z,99684
2018-06-11T15:53:42.299Z,99685
2018-06-11T15:56:11.146Z,99689
2018-06-11T15:58:40.007Z,99685
2018-06-11T16:01:08.873Z,99684
2018-06-11T16:03:37.699Z,99678
2018-06-11T16:06:07.290Z,99678
2018-06-11T16:08:36.131Z,99679
2018-06-11T16:11:04.970Z,99675
2018-06-11T16:13:33.815Z,99676
2018-06-11T16:16:02.668Z,99682
2018-06-11T16:18:32.271Z,99684
2018-06-11T16:21:01.091Z,99689
2018-06-11T16:23:29.956Z,99700
2018-06-11T16:25:59.541Z,99702
2018-06-11T16:28:28.388Z,99716
2018-06-11T16:30:57.235Z,99720
2018-06-11T16:33:26.824Z,99719
2018-06-11T16:35:55.675Z,99717
2018-06-11T16:38:24.724Z,99714
2018-06-11T16:40:53.567Z,99713
2018-06-11T16:43:22.405Z,99701
2018-06-11T16:45:51.982Z,99715
2018-06-11T16:48:20.811Z,99710
2018-06-11T16:50:49.649Z,99713
2018-06-11T16:53:18.502Z,99708
2018-06-11T16:55:47.336Z,99718
2018-06-11T16:58:16.180Z,99707
2018-06-11T17:00:45.030Z,99701
2018-06-11T17:03:13.863Z,99706
2018-06-11T17:05:42.712Z,99715
2018-06-11T17:08:11.567Z,99714
2018-06-11T17:10:40.433Z,99718
2018-06-11T17:13:09.295Z,99724
2018-06-11T17:15:38.154Z,99735
2018-06-11T17:18:07.575Z,99744
2018-06-11T17:20:36.411Z,99743
2018-06-11T17:23:05.251Z,99746
2018-06-11T17:25:34.110Z,99751
2018-06-11T17:28:02.935Z,99761
2018-06-11T17:30:32.526Z,99757
2018-06-11T17:33:01.382Z,99750
2018-06-11T17:35:30.218Z,99750
2018-06-11T17:37:59.054Z,99749
2018-06-11T17:40:27.899Z,99748
2018-06-11T17:42:56.735Z,99739
2018-06-11T17:45:25.573Z,99736
2018-06-11T17:47:55.160Z,99739
2018-06-11T17:50:24.012Z,99746
2018-06-11T17:52:52.859Z,99734
2018-06-11T17:55:22.447Z,99742
2018-06-11T17:57:51.303Z,99741
2018-06-11T18:00:20.168Z,99741
2018-06-11T18:02:48.960Z,99744
2018-06-11T18:05:17.814Z,99745
2018-06-11T18:07:46.647Z,99748
2018-06-11T18:10:15.498Z,99752
2018-06-11T18:12:44.362Z,99759
2018-06-11T18:15:13.195Z,99752
2018-06-11T18:17:42.042Z,99752
2018-06-11T18:20:10.896Z,99745
2018-06-11T18:22:39.732Z,99752
2018-06-11T18:25:08.592Z,99757
2018-06-11T18:27:37.423Z,99756
2018-06-11T18:30:07.029Z,99762
2018-06-11T18:32:36.645Z,99765
2018-06-11T18:35:05.500Z,99758
2018-06-11T18:37:34.330Z,99757
2018-06-11T18:40:03.189Z,99758
2018-06-11T18:42:32.038Z,99761
2018-06-11T18:45:00.904Z,99760
2018-06-11T18:47:29.762Z,99756
2018-06-11T18:49:58.596Z,99753
2018-06-11T18:52:27.449Z,99755
2018-06-11T18:54:57.039Z,99744
2018-06-11T18:57:25.886Z,99737
2018-06-11T18:59:54.736Z,99732
2018-06-11T19:02:24.394Z,99729
2018-06-11T19:04:53.189Z,99725
2018-06-11T19:07:22.040Z,99729
2018-06-11T19:09:50.889Z,99727
2018-06-11T19:12:19.779Z,99730
2018-06-11T19:14:48.587Z,99730
2018-06-11T19:17:17.444Z,99737
2018-06-11T19:19:46.291Z,99752
2018-06-11T19:22:15.154Z,99747
2018-06-11T19:24:44.752Z,99730
2018-06-11T19:27:14.333Z,99734
2018-06-11T19:29:43.207Z,99736
2018-06-11T19:32:12.029Z,99738
2018-06-11T19:34:40.880Z,99747
2018-06-11T19:37:09.720Z,99737
2018-06-11T19:39:39.301Z,99732
2018-06-11T19:42:08.144Z,99736
2018-06-11T19:44:36.997Z,99742
2018-06-11T19:47:05.844Z,99757
2018-06-11T19:49:34.683Z,99763
2018-06-11T19:52:03.534Z,99759
2018-06-11T19:54:32.380Z,99755
2018-06-11T19:57:01.220Z,99756
2018-06-11T19:59:30.262Z,99768
2018-06-11T20:01:59.106Z,99764
2018-06-11T20:04:27.964Z,99760
2018-06-11T20:06:56.814Z,99768
2018-06-11T20:09:25.946Z,99765
2018-06-11T20:11:54.746Z,99768
2018-06-11T20:14:23.609Z,99781
2018-06-11T20:16:52.452Z,99784
2018-06-11T20:19:21.318Z,99788
2018-06-11T20:21:50.892Z,99788
2018-06-11T20:24:19.736Z,99790
2018-06-11T20:26:49.204Z,99790
2018-06-11T20:29:18.057Z,99792
2018-06-11T20:31:47.636Z,99792
2018-06-11T20:34:16.482Z,99788
2018-06-11T20:36:45.386Z,99796
2018-06-11T20:39:14.223Z,99798
2018-06-11T20:41:43.803Z,99788
2018-06-11T20:44:12.676Z,99793
2018-06-11T20:46:41.526Z,99801
2018-06-11T20:49:10.371Z,99797
2018-06-11T20:51:39.212Z,99809
2018-06-11T20:54:08.075Z,99793
2018-06-11T20:56:36.936Z,99797
2018-06-11T20:59:05.783Z,99787
2018-06-11T21:01:34.652Z,99799
2018-06-11T21:04:04.254Z,99789
2018-06-11T21:06:33.094Z,99794
2018-06-11T21:09:01.942Z,99790
2018-06-11T21:11:30.777Z,99786
2018-06-11T21:13:59.681Z,99787
2018-06-11T21:16:28.479Z,99773
2018-06-11T21:18:57.320Z,99770
2018-06-11T21:21:26.171Z,99772
2018-06-11T21:23:55.042Z,99777
2018-06-11T21:26:23.880Z,99771
2018-06-11T21:28:52.724Z,99775
2018-06-11T21:31:21.571Z,99778
2018-06-11T21:33:50.417Z,99782
2018-06-11T21:36:19.275Z,99766
2018-06-11T21:38:48.120Z,99761
2018-06-11T21:41:16.983Z,99757
2018-06-11T21:43:45.825Z,99754
2018-06-11T21:46:14.683Z,99754
2018-06-11T21:48:43.539Z,99749
2018-06-11T21:51:12.368Z,99750
2018-06-11T21:53:41.313Z,99754
2018-06-11T21:56:10.047Z,99763
2018-06-11T21:58:38.894Z,99749
2018-06-11T22:01:07.797Z,99749
2018-06-11T22:03:36.685Z,99742
2018-06-11T22:06:05.494Z,99750
2018-06-11T22:08:34.343Z,99742
2018-06-11T22:11:03.186Z,99750
2018-06-11T22:13:32.029Z,99755
2018-06-11T22:16:00.872Z,99751
2018-06-11T22:18:29.712Z,99758
2018-06-11T22:20:58.558Z,99765
2018-06-11T22:23:27.412Z,99765
2018-06-11T22:25:57.013Z,99771
2018-06-11T22:28:26.601Z,99770
2018-06-11T22:30:55.445Z,99783
2018-06-11T22:33:24.284Z,99779
2018-06-11T22:35:53.153Z,99776
2018-06-11T22:38:22.000Z,99771
2018-06-11T22:40:50.863Z,99770
2018-06-11T22:43:19.707Z,99768
2018-06-11T22:45:48.555Z,99770
2018-06-11T22:48:17.400Z,99768
2018-06-11T22:50:46.234Z,99768
2018-06-11T22:53:15.821Z,99775
2018-06-11T22:55:45.402Z,99778
2018-06-11T22:58:14.304Z,99785
2018-06-11T23:00:43.098Z,99788
2018-06-11T23:03:11.931Z,99783
2018-06-11T23:05:40.772Z,99775
2018-06-11T23:08:09.605Z,99773
2018-06-11T23:10:38.446Z,99772
2018-06-11T23:13:07.291Z,99781
2018-06-11T23:15:36.129Z,99774
2018-06-11T23:18:04.984Z,99774
2018-06-11T23:20:33.823Z,99773
2018-06-11T23:23:02.671Z,99776
2018-06-11T23:25:31.520Z,99775
2018-06-11T23:28:00.367Z,99770
2018-06-11T23:30:29.207Z,99779
2018-06-11T23:32:58.041Z,99763
2018-06-11T23:35:26.892Z,99763
2018-06-11T23:37:55.735Z,99763
2018-06-11T23:40:24.602Z,99773
2018-06-11T23:42:53.443Z,99774
2018-06-11T23:45:22.291Z,99786
2018-06-11T23:47:51.139Z,99783
2018-06-11T23:50:19.985Z,99784
2018-06-11T23:52:48.809Z,99775
2018-06-11T23:55:17.675Z,99779
2018-06-11T23:57:47.260Z,99776
